createdAt,value
2023-02-22T00:01:35.668Z,100095.84
2023-02-22T00:04:39.908Z,100088.19
2023-02-22T00:07:42.405Z,100091.78
2023-02-22T00:10:45.424Z,100096.91
2023-02-22T00:13:50.640Z,100089.19
2023-02-22T00:16:53.014Z,100094.44
2023-02-22T00:19:55.240Z,100089.47
2023-02-22T00:22:57.560Z,100092.19
2023-02-22T00:26:01.357Z,100100.31
2023-02-22T00:29:03.721Z,100099.41
2023-02-22T00:32:06.203Z,100101.25
2023-02-22T00:35:09.000Z,100098.66
2023-02-22T00:38:12.099Z,100105.13
2023-02-22T00:41:15.226Z,100101.81
2023-02-22T00:44:17.642Z,100101.91
2023-02-22T00:47:20.033Z,100099.28
2023-02-22T00:50:24.957Z,100099.28
2023-02-22T00:53:27.436Z,100097.75
2023-02-22T00:56:29.778Z,100087.38
2023-02-22T00:59:32.166Z,100087.28
2023-02-22T01:02:34.760Z,100093.38
2023-02-22T01:05:38.481Z,100096.97
2023-02-22T01:08:45.267Z,100096.91
2023-02-22T01:11:49.082Z,100090.19
2023-02-22T01:14:51.622Z,100086.88
2023-02-22T01:17:55.091Z,100097.31
2023-02-22T01:20:57.516Z,100097.41
2023-02-22T01:24:00.022Z,100100.12
2023-02-22T01:27:02.816Z,100097.75
2023-02-22T01:30:08.838Z,100094.31
2023-02-22T01:33:13.026Z,100091.78
2023-02-22T01:36:15.299Z,100095.53
2023-02-22T01:39:18.200Z,100092.13
2023-02-22T01:42:20.571Z,100093.84
2023-02-22T01:45:35.005Z,100093.09
2023-02-22T01:48:45.297Z,100086.16
2023-02-22T01:51:52.002Z,100087.13
2023-02-22T01:54:58.383Z,100081.75
2023-02-22T01:58:01.664Z,100081.22
2023-02-22T02:01:05.701Z,100085.81
2023-02-22T02:04:20.935Z,100075.44
2023-02-22T02:07:25.066Z,100072.91
2023-02-22T02:10:28.511Z,100075.34
2023-02-22T02:13:30.961Z,100078.03
2023-02-22T02:16:46.439Z,100075.63
2023-02-22T02:20:11.824Z,100076.75
2023-02-22T02:23:52.629Z,100063.50
2023-02-22T02:27:13.925Z,100066.84
2023-02-22T02:30:25.510Z,100063.31
2023-02-22T02:33:35.326Z,100061.66
2023-02-22T02:36:47.696Z,100059.97
2023-02-22T02:39:55.905Z,100060.78
2023-02-22T02:43:05.333Z,100054.00
2023-02-22T02:46:15.513Z,100061.81
2023-02-22T02:49:27.683Z,100067.97
2023-02-22T02:52:33.495Z,100067.25
2023-02-22T02:55:37.313Z,100062.34
2023-02-22T02:58:46.353Z,100067.75
2023-02-22T03:02:07.670Z,100059.44
2023-02-22T03:05:28.162Z,100062.19
2023-02-22T03:09:01.652Z,100061.50
2023-02-22T03:12:22.284Z,100065.00
2023-02-22T03:16:13.026Z,100067.59
2023-02-22T03:19:45.977Z,100071.41
2023-02-22T03:22:57.973Z,100076.94
2023-02-22T03:26:13.499Z,100081.22
2023-02-22T03:29:18.852Z,100082.41
2023-02-22T03:32:25.571Z,100084.59
2023-02-22T03:35:35.581Z,100079.44
2023-02-22T03:38:41.157Z,100076.09
2023-02-22T03:41:51.595Z,100078.78
2023-02-22T03:44:55.412Z,100073.84
2023-02-22T03:48:05.024Z,100087.84
2023-02-22T03:51:07.911Z,100068.88
2023-02-22T03:54:16.589Z,100079.16
2023-02-22T03:57:29.516Z,100068.88
2023-02-22T04:00:35.150Z,100077.50
2023-02-22T04:03:37.466Z,100077.59
2023-02-22T04:06:39.861Z,100082.72
2023-02-22T04:09:42.719Z,100075.88
2023-02-22T04:12:45.457Z,100085.53
2023-02-22T04:15:47.894Z,100075.88
2023-02-22T04:18:50.369Z,100075.78
2023-02-22T04:21:52.999Z,100068.94
2023-02-22T04:24:55.357Z,100071.56
2023-02-22T04:27:58.022Z,100082.00
2023-02-22T04:31:00.974Z,100076.09
2023-02-22T04:34:04.134Z,100081.22
2023-02-22T04:37:07.878Z,100081.31
2023-02-22T04:40:11.776Z,100080.47
2023-02-22T04:43:14.101Z,100080.59
2023-02-22T04:46:16.715Z,100085.00
2023-02-22T04:49:19.189Z,100070.38
2023-02-22T04:52:21.933Z,100087.81
2023-02-22T04:55:24.367Z,100081.72
2023-02-22T04:58:26.851Z,100077.53
2023-02-22T05:01:33.978Z,100082.84
2023-02-22T05:04:38.890Z,100077.66
2023-02-22T05:07:41.272Z,100075.00
2023-02-22T05:10:43.888Z,100075.94
2023-02-22T05:13:46.942Z,100082.16
2023-02-22T05:16:50.167Z,100076.94
2023-02-22T05:19:52.996Z,100082.16
2023-02-22T05:23:00.246Z,100088.44
2023-02-22T05:26:02.584Z,100085.03
2023-02-22T05:29:05.308Z,100086.88
2023-02-22T05:32:07.735Z,100082.56
2023-02-22T05:35:10.059Z,100092.25
2023-02-22T05:38:15.547Z,100096.59
2023-02-22T05:41:18.583Z,100099.28
2023-02-22T05:44:21.183Z,100101.06
2023-02-22T05:47:23.652Z,100101.06
2023-02-22T05:50:27.190Z,100101.84
2023-02-22T05:53:29.694Z,100105.37
2023-02-22T05:56:32.097Z,100100.16
2023-02-22T05:59:34.422Z,100111.34
2023-02-22T06:02:37.060Z,100113.84
2023-02-22T06:05:39.625Z,100113.78
2023-02-22T06:08:42.037Z,100119.69
2023-02-22T06:11:44.459Z,100122.94
2023-02-22T06:14:46.840Z,100114.25
2023-02-22T06:17:49.288Z,100129.78
2023-02-22T06:20:54.466Z,100124.41
2023-02-22T06:23:57.096Z,100131.31
2023-02-22T06:27:01.727Z,100124.19
2023-02-22T06:30:05.401Z,100131.84
2023-02-22T06:33:08.311Z,100127.47
2023-02-22T06:36:10.959Z,100140.50
2023-02-22T06:39:13.338Z,100142.09
2023-02-22T06:42:15.715Z,100143.53
2023-02-22T06:45:18.729Z,100145.06
2023-02-22T06:48:21.114Z,100143.13
2023-02-22T06:51:24.120Z,100148.91
2023-02-22T06:54:27.425Z,100143.38
2023-02-22T06:57:29.764Z,100142.13
2023-02-22T07:00:33.059Z,100150.38
2023-02-22T07:03:36.437Z,100149.94
2023-02-22T07:06:38.761Z,100150.34
2023-02-22T07:09:41.115Z,100154.25
2023-02-22T07:12:43.539Z,100151.91
2023-02-22T07:15:45.940Z,100146.16
2023-02-22T07:18:48.267Z,100151.34
2023-02-22T07:21:51.129Z,100157.28
2023-02-22T07:24:55.878Z,100158.06
2023-02-22T07:27:59.865Z,100160.84
2023-02-22T07:31:02.485Z,100143.59
2023-02-22T07:34:04.896Z,100143.81
2023-02-22T07:37:07.282Z,100132.53
2023-02-22T07:40:10.429Z,100132.63
2023-02-22T07:43:31.886Z,100134.63
2023-02-22T07:46:34.277Z,100133.06
2023-02-22T07:49:37.315Z,100125.25
2023-02-22T07:52:39.703Z,100127.03
2023-02-22T07:55:42.034Z,100122.25
2023-02-22T07:58:44.498Z,100119.31
2023-02-22T08:01:50.194Z,100116.66
2023-02-22T08:04:52.506Z,100116.00
2023-02-22T08:07:55.020Z,100117.12
2023-02-22T08:10:57.488Z,100118.94
2023-02-22T08:13:59.964Z,100119.06
2023-02-22T08:17:02.477Z,100111.84
2023-02-22T08:20:05.308Z,100120.00
2023-02-22T08:23:08.868Z,100113.53
2023-02-22T08:26:15.847Z,100109.78
2023-02-22T08:29:18.158Z,100101.75
2023-02-22T08:32:20.972Z,100104.00
2023-02-22T08:35:23.580Z,100105.16
2023-02-22T08:38:29.391Z,100104.38
2023-02-22T08:41:31.758Z,100102.06
2023-02-22T08:44:34.178Z,100104.44
2023-02-22T08:47:36.907Z,100102.50
2023-02-22T08:50:41.599Z,100116.03
2023-02-22T08:53:44.597Z,100105.81
2023-02-22T08:56:46.895Z,100109.09
2023-02-22T08:59:49.343Z,100110.72
2023-02-22T09:02:53.224Z,100108.19
2023-02-22T09:05:56.301Z,100110.72
2023-02-22T09:08:58.808Z,100105.50
2023-02-22T09:12:01.159Z,100111.63
2023-02-22T09:15:04.121Z,100106.19
2023-02-22T09:18:08.734Z,100109.66
2023-02-22T09:21:12.047Z,100099.41
2023-02-22T09:24:14.912Z,100103.66
2023-02-22T09:27:20.310Z,100103.25
2023-02-22T09:30:25.284Z,100106.81
2023-02-22T09:33:27.589Z,100099.38
2023-02-22T09:36:30.058Z,100102.19
2023-02-22T09:39:37.942Z,100105.25
2023-02-22T09:42:47.172Z,100098.66
2023-02-22T09:46:19.685Z,100096.88
2023-02-22T09:49:34.787Z,100093.88
2023-02-22T09:52:41.711Z,100095.66
2023-02-22T09:55:51.239Z,100084.72
2023-02-22T09:58:59.609Z,100090.75
2023-02-22T10:02:30.503Z,100084.91
2023-02-22T10:05:43.016Z,100079.47
2023-02-22T10:08:45.656Z,100074.28
2023-02-22T10:12:15.301Z,100070.75
2023-02-22T10:15:32.786Z,100067.87
2023-02-22T10:19:01.866Z,100059.50
2023-02-22T10:22:07.905Z,100061.34
2023-02-22T10:25:26.059Z,100059.03
2023-02-22T10:28:38.322Z,100051.22
2023-02-22T10:31:47.328Z,100046.38
2023-02-22T10:34:54.076Z,100044.75
2023-02-22T10:38:17.446Z,100041.28
2023-02-22T10:41:28.040Z,100039.88
2023-02-22T10:44:30.853Z,100037.03
2023-02-22T10:47:34.152Z,100023.53
2023-02-22T10:50:41.018Z,100023.41
2023-02-22T10:53:43.417Z,100020.00
2023-02-22T10:56:52.458Z,100009.25
2023-02-22T10:59:57.763Z,100011.81
2023-02-22T11:03:02.580Z,100009.94
2023-02-22T11:06:19.588Z,100001.69
2023-02-22T11:09:22.806Z,99990.28
2023-02-22T11:12:32.303Z,99987.03
2023-02-22T11:15:36.241Z,99982.41
2023-02-22T11:18:38.532Z,99978.81
2023-02-22T11:21:41.764Z,99974.38
2023-02-22T11:24:51.271Z,99973.03
2023-02-22T11:27:54.299Z,99972.06
2023-02-22T11:30:59.341Z,99964.78
2023-02-22T11:34:04.040Z,99971.37
2023-02-22T11:37:37.023Z,99959.06
2023-02-22T11:40:40.385Z,99953.28
2023-02-22T11:43:48.140Z,99950.19
2023-02-22T11:46:52.177Z,99942.00
2023-02-22T11:49:54.688Z,99931.50
2023-02-22T11:53:12.032Z,99926.91
2023-02-22T11:56:37.770Z,99932.97
2023-02-22T11:59:41.092Z,99928.28
2023-02-22T12:03:33.552Z,99912.03
2023-02-22T12:06:53.848Z,99905.84
2023-02-22T12:10:23.077Z,99908.84
2023-02-22T12:13:44.529Z,99900.66
2023-02-22T12:16:49.768Z,99891.75
2023-02-22T12:19:59.755Z,99891.78
2023-02-22T12:23:34.040Z,99897.94
2023-02-22T12:26:41.500Z,99883.25
2023-02-22T12:29:50.789Z,99888.50
2023-02-22T12:32:55.546Z,99890.97
2023-02-22T12:36:00.946Z,99886.63
2023-02-22T12:39:29.749Z,99881.91
2023-02-22T12:42:57.942Z,99871.72
2023-02-22T12:46:16.351Z,99871.16
2023-02-22T12:49:30.886Z,99866.13
2023-02-22T12:52:37.735Z,99863.03
2023-02-22T12:55:48.026Z,99856.16
2023-02-22T12:58:54.887Z,99853.22
2023-02-22T13:02:04.372Z,99846.91
2023-02-22T13:05:14.161Z,99851.06
2023-02-22T13:08:38.785Z,99854.53
2023-02-22T13:11:53.057Z,99847.81
2023-02-22T13:15:11.062Z,99839.59
2023-02-22T13:18:19.152Z,99845.44
2023-02-22T13:21:36.567Z,99841.91
2023-02-22T13:24:53.081Z,99831.25
2023-02-22T13:28:10.505Z,99840.28
2023-02-22T13:31:39.321Z,99829.97
2023-02-22T13:34:58.243Z,99838.63
2023-02-22T13:38:35.596Z,99831.00
2023-02-22T13:41:46.521Z,99819.06
2023-02-22T13:45:08.123Z,99822.44
2023-02-22T13:48:47.917Z,99820.88
2023-02-22T13:51:59.070Z,99818.63
2023-02-22T13:55:11.449Z,99811.44
2023-02-22T13:58:14.462Z,99814.03
2023-02-22T14:01:43.822Z,99810.06
2023-02-22T14:04:46.310Z,99808.69
2023-02-22T14:07:49.686Z,99814.56
2023-02-22T14:10:56.531Z,99807.22
2023-02-22T14:14:19.407Z,99802.56
2023-02-22T14:17:25.668Z,99806.56
2023-02-22T14:20:37.064Z,99803.53
2023-02-22T14:23:45.279Z,99803.84
2023-02-22T14:27:04.664Z,99792.94
2023-02-22T14:30:07.991Z,99798.66
2023-02-22T14:33:47.866Z,99804.19
2023-02-22T14:37:07.883Z,99800.69
2023-02-22T14:40:27.988Z,99800.72
2023-02-22T14:43:30.897Z,99792.97
2023-02-22T14:46:40.767Z,99793.31
2023-02-22T14:49:48.222Z,99791.44
2023-02-22T14:53:23.004Z,99786.63
2023-02-22T14:56:36.426Z,99786.19
2023-02-22T14:59:54.533Z,99793.44
2023-02-22T15:03:00.977Z,99788.81
2023-02-22T15:06:06.669Z,99784.12
2023-02-22T15:09:16.143Z,99782.44
2023-02-22T15:12:31.302Z,99781.69
2023-02-22T15:15:33.769Z,99787.28
2023-02-22T15:18:43.404Z,99781.41
2023-02-22T15:21:46.798Z,99783.66
2023-02-22T15:25:00.511Z,99779.44
2023-02-22T15:28:05.519Z,99776.09
2023-02-22T15:31:27.726Z,99784.31
2023-02-22T15:34:32.328Z,99786.63
2023-02-22T15:37:35.052Z,99786.63
2023-02-22T15:40:43.286Z,99789.53
2023-02-22T15:43:45.821Z,99791.47
2023-02-22T15:46:48.337Z,99786.81
2023-02-22T15:50:16.151Z,99784.41
2023-02-22T15:53:40.390Z,99773.97
2023-02-22T15:56:55.675Z,99771.28
2023-02-22T15:59:58.565Z,99769.03
2023-02-22T16:03:01.140Z,99777.59
2023-02-22T16:06:12.139Z,99769.72
2023-02-22T16:09:23.281Z,99767.09
2023-02-22T16:12:28.320Z,99769.81
2023-02-22T16:15:36.956Z,99770.59
2023-02-22T16:18:40.046Z,99763.78
2023-02-22T16:22:03.675Z,99755.81
2023-02-22T16:25:18.916Z,99761.78
2023-02-22T16:28:36.669Z,99757.94
2023-02-22T16:31:41.709Z,99758.19
2023-02-22T16:34:45.702Z,99759.91
2023-02-22T16:37:57.458Z,99763.47
2023-02-22T16:41:01.144Z,99767.59
2023-02-22T16:44:08.416Z,99764.13
2023-02-22T16:47:13.299Z,99773.34
2023-02-22T16:50:17.969Z,99778.59
2023-02-22T16:53:24.891Z,99778.84
2023-02-22T16:56:34.444Z,99774.94
2023-02-22T16:59:40.795Z,99779.50
2023-02-22T17:02:45.939Z,99781.63
2023-02-22T17:05:50.614Z,99781.22
2023-02-22T17:08:54.762Z,99787.56
2023-02-22T17:12:00.917Z,99787.69
2023-02-22T17:15:05.543Z,99794.28
2023-02-22T17:18:23.513Z,99800.25
2023-02-22T17:21:28.277Z,99797.72
2023-02-22T17:24:34.687Z,99792.31
2023-02-22T17:27:38.968Z,99801.34
2023-02-22T17:30:44.692Z,99798.41
2023-02-22T17:33:48.256Z,99794.06
2023-02-22T17:36:51.373Z,99798.62
2023-02-22T17:39:56.132Z,99798.28
2023-02-22T17:42:59.566Z,99796.31
2023-02-22T17:46:08.159Z,99793.69
2023-02-22T17:49:14.086Z,99787.56
2023-02-22T17:52:17.985Z,99783.75
2023-02-22T17:55:22.639Z,99781.50
2023-02-22T17:58:31.284Z,99780.75
2023-02-22T18:01:34.582Z,99782.34
2023-02-22T18:04:39.987Z,99779.81
2023-02-22T18:07:44.673Z,99788.81
2023-02-22T18:10:47.825Z,99787.84
2023-02-22T18:13:53.214Z,99781.38
2023-02-22T18:16:56.481Z,99773.00
2023-02-22T18:20:01.250Z,99774.78
2023-02-22T18:23:12.069Z,99766.19
2023-02-22T18:26:18.755Z,99771.44
2023-02-22T18:29:22.166Z,99767.13
2023-02-22T18:32:30.996Z,99766.66
2023-02-22T18:35:35.802Z,99770.56
2023-02-22T18:38:44.059Z,99769.22
2023-02-22T18:41:52.245Z,99768.31
2023-02-22T18:45:01.425Z,99769.00
2023-02-22T18:48:05.160Z,99772.03
2023-02-22T18:51:11.659Z,99774.38
2023-02-22T18:54:15.186Z,99783.41
2023-02-22T18:57:23.281Z,99774.56
2023-02-22T19:00:30.043Z,99772.59
2023-02-22T19:03:39.531Z,99772.00
2023-02-22T19:06:45.832Z,99772.78
2023-02-22T19:09:51.555Z,99774.75
2023-02-22T19:12:55.769Z,99781.44
2023-02-22T19:15:59.569Z,99775.88
2023-02-22T19:19:07.869Z,99775.78
2023-02-22T19:22:16.510Z,99776.72
2023-02-22T19:25:23.060Z,99771.19
2023-02-22T19:28:34.520Z,99776.12
2023-02-22T19:31:40.887Z,99774.91
2023-02-22T19:34:46.166Z,99777.94
2023-02-22T19:37:54.589Z,99770.59
2023-02-22T19:41:00.322Z,99770.69
2023-02-22T19:44:05.370Z,99780.19
2023-02-22T19:47:10.756Z,99785.25
2023-02-22T19:50:16.646Z,99785.84
2023-02-22T19:53:21.361Z,99783.53
2023-02-22T19:56:29.783Z,99787.03
2023-02-22T19:59:34.171Z,99797.91
2023-02-22T20:02:40.350Z,99797.53
2023-02-22T20:05:54.458Z,99794.97
2023-02-22T20:08:58.912Z,99805.09
2023-02-22T20:12:06.246Z,99800.00
2023-02-22T20:15:12.777Z,99802.87
2023-02-22T20:18:18.002Z,99801.44
2023-02-22T20:21:32.006Z,99800.09
2023-02-22T20:24:37.131Z,99797.81
2023-02-22T20:27:41.346Z,99801.63
2023-02-22T20:30:45.474Z,99803.00
2023-02-22T20:33:53.928Z,99799.69
2023-02-22T20:36:58.875Z,99802.50
2023-02-22T20:40:05.522Z,99804.34
2023-02-22T20:43:10.452Z,99804.69
2023-02-22T20:46:14.428Z,99808.31
2023-02-22T20:49:23.781Z,99809.38
2023-02-22T20:52:28.472Z,99808.81
2023-02-22T20:55:35.105Z,99801.97
2023-02-22T20:58:38.699Z,99806.44
2023-02-22T21:01:42.979Z,99805.50
2023-02-22T21:04:46.866Z,99802.13
2023-02-22T21:07:50.624Z,99805.84
2023-02-22T21:10:56.475Z,99804.31
2023-02-22T21:14:01.232Z,99802.69
2023-02-22T21:17:05.416Z,99798.09
2023-02-22T21:20:13.581Z,99801.00
2023-02-22T21:23:18.365Z,99793.38
2023-02-22T21:26:24.880Z,99799.78
2023-02-22T21:29:30.008Z,99802.44
2023-02-22T21:36:34.215Z,99803.28
2023-02-22T21:39:37.805Z,99794.75
2023-02-22T21:45:54.347Z,99797.41
2023-02-22T21:48:58.950Z,99793.16
2023-02-22T21:52:04.984Z,99791.72
2023-02-22T21:55:08.067Z,99797.13
2023-02-22T21:58:10.519Z,99789.88
2023-02-22T22:01:17.977Z,99795.28
2023-02-22T22:04:23.002Z,99795.75
2023-02-22T22:07:25.233Z,99796.00
2023-02-22T22:10:33.286Z,99803.50
2023-02-22T22:17:00.295Z,99801.19
2023-02-22T22:20:05.478Z,99796.69
2023-02-22T22:23:08.021Z,99801.34
2023-02-22T22:26:13.570Z,99805.03
2023-02-22T22:29:15.747Z,99801.19
2023-02-22T22:32:20.932Z,99803.87
2023-02-22T22:35:23.463Z,99803.09
2023-02-22T22:38:29.939Z,99801.63
2023-02-22T22:41:34.064Z,99807.97
2023-02-22T22:44:42.278Z,99807.12
2023-02-22T22:47:46.298Z,99801.16
2023-02-22T22:50:57.133Z,99805.72
2023-02-22T22:54:00.311Z,99805.03
2023-02-22T22:57:04.109Z,99806.91
2023-02-22T23:00:29.899Z,99807.12
2023-02-22T23:03:33.871Z,99808.97
2023-02-22T23:06:47.964Z,99805.59
2023-02-22T23:09:50.083Z,99804.94
2023-02-22T23:12:53.904Z,99799.94
2023-02-22T23:15:56.075Z,99799.09
2023-02-22T23:18:59.199Z,99791.38
2023-02-22T23:22:01.927Z,99796.13
2023-02-22T23:25:05.874Z,99799.66
2023-02-22T23:28:14.780Z,99800.66
2023-02-22T23:31:18.065Z,99803.19
2023-02-22T23:34:23.296Z,99801.66
2023-02-22T23:37:25.337Z,99800.16
2023-02-22T23:40:29.200Z,99805.50
2023-02-22T23:43:34.869Z,99789.34
2023-02-22T23:46:41.847Z,99799.81
2023-02-22T23:49:49.423Z,99801.03
2023-02-22T23:52:59.730Z,99801.22
2023-02-22T23:56:01.834Z,99802.16
2023-02-22T23:59:11.205Z,99801.47
